createdAt,value
2019-03-31T00:01:57.565Z,99.90
2019-03-31T00:04:28.090Z,99.90
2019-03-31T00:06:58.797Z,99.90
2019-03-31T00:09:29.766Z,99.90
2019-03-31T00:12:00.227Z,99.90
2019-03-31T00:14:31.078Z,99.90
2019-03-31T00:17:01.566Z,99.90
2019-03-31T00:19:32.539Z,99.90
2019-03-31T00:22:03.096Z,99.90
2019-03-31T00:24:33.932Z,99.90
2019-03-31T00:27:04.527Z,99.90
2019-03-31T00:29:35.075Z,99.90
2019-03-31T00:32:05.782Z,99.90
2019-03-31T00:34:36.500Z,99.90
2019-03-31T00:37:07.768Z,99.90
2019-03-31T00:39:39.013Z,99.90
2019-03-31T00:42:09.508Z,99.90
2019-03-31T00:44:41.168Z,99.90
2019-03-31T00:47:11.845Z,99.90
2019-03-31T00:49:42.340Z,99.90
2019-03-31T00:52:13.053Z,99.90
2019-03-31T00:54:44.358Z,99.90
2019-03-31T00:57:14.756Z,99.90
2019-03-31T00:59:45.289Z,99.90
2019-03-31T01:02:20.765Z,99.90
2019-03-31T01:04:51.562Z,99.90
2019-03-31T01:07:23.864Z,99.90
2019-03-31T01:09:56.839Z,99.90
2019-03-31T01:12:27.981Z,99.90
2019-03-31T01:14:58.559Z,99.90
2019-03-31T01:17:29.760Z,99.90
2019-03-31T01:20:00.493Z,99.90
2019-03-31T01:22:30.849Z,99.90
2019-03-31T01:25:01.767Z,99.90
2019-03-31T01:27:32.799Z,99.90
2019-03-31T01:30:03.442Z,99.90
2019-03-31T01:32:34.236Z,99.90
2019-03-31T01:35:06.614Z,99.90
2019-03-31T01:37:37.586Z,99.90
2019-03-31T01:40:08.909Z,99.90
2019-03-31T01:42:39.598Z,99.90
2019-03-31T01:45:10.698Z,99.90
2019-03-31T01:47:41.218Z,99.90
2019-03-31T01:50:14.483Z,99.90
2019-03-31T01:52:44.860Z,99.90
2019-03-31T01:55:15.431Z,99.90
2019-03-31T01:57:45.983Z,99.90
2019-03-31T02:00:29.909Z,99.90
2019-03-31T02:03:00.358Z,99.90
2019-03-31T02:05:30.840Z,99.90
2019-03-31T02:08:01.266Z,99.90
2019-03-31T02:10:31.807Z,99.90
2019-03-31T02:13:02.155Z,99.90
2019-03-31T02:15:33.024Z,99.90
2019-03-31T02:18:04.061Z,99.90
2019-03-31T02:20:34.824Z,99.90
2019-03-31T02:23:08.743Z,99.90
2019-03-31T02:25:39.162Z,99.90
2019-03-31T02:28:09.511Z,99.90
2019-03-31T02:30:39.938Z,99.90
2019-03-31T02:33:10.482Z,99.90
2019-03-31T02:35:40.951Z,99.90
2019-03-31T02:38:11.646Z,99.90
2019-03-31T02:40:42.251Z,99.90
2019-03-31T02:43:12.734Z,99.90
2019-03-31T02:45:43.374Z,99.90
2019-03-31T02:48:14.026Z,99.90
2019-03-31T02:50:51.180Z,99.90
2019-03-31T02:53:21.999Z,99.90
2019-03-31T02:55:55.135Z,99.90
2019-03-31T02:58:27.115Z,99.90
2019-03-31T03:00:58.543Z,99.90
2019-03-31T03:03:30.454Z,99.90
2019-03-31T03:06:02.837Z,99.90
2019-03-31T03:08:36.057Z,99.90
2019-03-31T03:11:08.400Z,99.90
2019-03-31T03:13:40.864Z,99.90
2019-03-31T03:16:36.311Z,99.90
2019-03-31T03:19:06.919Z,99.90
2019-03-31T03:21:37.810Z,99.90
2019-03-31T03:24:08.921Z,99.90
2019-03-31T03:26:39.411Z,99.90
2019-03-31T03:29:09.785Z,99.90
2019-03-31T03:31:40.454Z,99.90
2019-03-31T03:34:10.869Z,99.90
2019-03-31T03:36:43.635Z,99.90
2019-03-31T03:39:13.476Z,99.90
2019-03-31T03:41:44.353Z,99.90
2019-03-31T03:44:14.768Z,99.90
2019-03-31T03:46:45.228Z,99.90
2019-03-31T03:49:16.048Z,99.90
2019-03-31T03:51:46.664Z,99.90
2019-03-31T03:54:17.032Z,99.90
2019-03-31T03:56:47.430Z,99.90
2019-03-31T03:59:17.785Z,99.90
2019-03-31T04:01:48.321Z,99.90
2019-03-31T04:04:18.823Z,99.90
2019-03-31T04:06:49.234Z,99.90
2019-03-31T04:09:19.765Z,99.90
2019-03-31T04:11:50.233Z,99.90
2019-03-31T04:14:20.658Z,99.90
2019-03-31T04:16:51.028Z,99.90
2019-03-31T04:19:21.998Z,99.90
2019-03-31T04:21:52.821Z,99.90
2019-03-31T04:24:24.284Z,99.90
2019-03-31T04:26:55.304Z,99.90
2019-03-31T04:29:25.772Z,99.90
2019-03-31T04:31:56.391Z,99.90
2019-03-31T04:34:27.015Z,99.90
2019-03-31T04:36:57.781Z,99.90
2019-03-31T04:39:28.279Z,99.90
2019-03-31T04:41:58.805Z,99.90
2019-03-31T04:44:29.320Z,99.90
2019-03-31T04:46:59.954Z,99.90
2019-03-31T04:49:30.798Z,99.90
2019-03-31T04:52:01.520Z,99.90
2019-03-31T04:54:32.091Z,99.90
2019-03-31T04:57:04.534Z,99.90
2019-03-31T04:59:35.596Z,99.90
2019-03-31T05:02:07.093Z,99.90
2019-03-31T05:04:37.574Z,99.90
2019-03-31T05:07:08.275Z,99.90
2019-03-31T05:09:38.671Z,99.90
2019-03-31T05:12:09.390Z,99.90
2019-03-31T05:14:39.898Z,99.90
2019-03-31T05:17:10.413Z,99.90
2019-03-31T05:19:40.797Z,99.90
2019-03-31T05:22:11.656Z,99.90
2019-03-31T05:24:42.512Z,99.90
2019-03-31T05:27:13.069Z,99.90
2019-03-31T05:29:43.544Z,99.90
2019-03-31T05:32:15.400Z,99.90
2019-03-31T05:34:46.040Z,99.90
2019-03-31T05:37:17.105Z,99.90
2019-03-31T05:39:47.667Z,99.90
2019-03-31T05:42:18.228Z,99.90
2019-03-31T05:44:49.107Z,99.90
2019-03-31T05:47:19.986Z,99.90
2019-03-31T05:49:50.567Z,99.90
2019-03-31T05:52:21.029Z,99.90
2019-03-31T05:54:51.772Z,99.90
2019-03-31T05:57:22.370Z,99.90
2019-03-31T05:59:52.790Z,99.90
2019-03-31T06:02:23.374Z,99.90
2019-03-31T06:04:53.935Z,99.90
2019-03-31T06:07:24.421Z,99.90
2019-03-31T06:09:54.943Z,99.90
2019-03-31T06:12:26.004Z,99.90
2019-03-31T06:14:56.780Z,99.90
2019-03-31T06:17:27.319Z,99.90
2019-03-31T06:19:57.909Z,99.90
2019-03-31T06:22:28.274Z,96.30
2019-03-31T06:24:58.965Z,87.90
2019-03-31T06:27:29.404Z,86.10
2019-03-31T06:30:01.695Z,80.90
2019-03-31T06:32:33.090Z,80.90
2019-03-31T06:35:03.904Z,80.40
2019-03-31T06:37:34.737Z,77.40
2019-03-31T06:40:07.788Z,72.40
2019-03-31T06:42:38.898Z,71.50
2019-03-31T06:45:10.256Z,69.40
2019-03-31T06:47:40.815Z,66.70
2019-03-31T06:50:12.813Z,65.00
2019-03-31T06:52:43.413Z,62.50
2019-03-31T06:55:14.361Z,60.00
2019-03-31T06:57:45.419Z,58.80
2019-03-31T07:00:16.983Z,56.20
2019-03-31T07:02:47.955Z,55.30
2019-03-31T07:05:18.608Z,52.90
2019-03-31T07:07:49.617Z,51.90
2019-03-31T07:10:23.459Z,50.70
2019-03-31T07:12:53.909Z,50.20
2019-03-31T07:15:24.532Z,48.30
2019-03-31T07:17:55.028Z,46.50
2019-03-31T07:20:26.331Z,45.10
2019-03-31T07:22:58.095Z,45.10
2019-03-31T07:25:28.651Z,44.70
2019-03-31T07:27:59.176Z,44.30
2019-03-31T07:30:29.618Z,44.10
2019-03-31T07:33:00.037Z,43.70
2019-03-31T07:35:30.459Z,43.90
2019-03-31T07:38:01.038Z,42.90
2019-03-31T07:40:31.562Z,44.10
2019-03-31T07:43:02.097Z,44.80
2019-03-31T07:45:32.592Z,44.80
2019-03-31T07:48:03.144Z,44.00
2019-03-31T07:50:33.612Z,43.00
2019-03-31T07:53:04.633Z,42.60
2019-03-31T07:55:35.045Z,41.70
2019-03-31T07:58:05.730Z,41.70
2019-03-31T08:00:36.365Z,42.40
2019-03-31T08:03:06.997Z,41.80
2019-03-31T08:05:37.903Z,41.80
2019-03-31T08:08:10.236Z,42.40
2019-03-31T08:10:40.844Z,42.50
2019-03-31T08:13:11.480Z,42.60
2019-03-31T08:15:41.936Z,43.00
2019-03-31T08:18:12.656Z,42.90
2019-03-31T08:20:43.274Z,42.90
2019-03-31T08:23:13.774Z,42.00
2019-03-31T08:25:44.202Z,41.00
2019-03-31T08:28:14.647Z,40.40
2019-03-31T08:30:45.519Z,40.50
2019-03-31T08:33:16.344Z,39.80
2019-03-31T08:35:47.907Z,39.40
2019-03-31T08:38:18.753Z,38.90
2019-03-31T08:40:49.685Z,39.40
2019-03-31T08:43:20.312Z,38.40
2019-03-31T08:45:50.730Z,37.10
2019-03-31T08:48:21.565Z,37.50
2019-03-31T08:50:52.030Z,37.40
2019-03-31T08:53:23.305Z,37.00
2019-03-31T08:55:54.126Z,36.80
2019-03-31T08:58:24.568Z,37.30
2019-03-31T09:00:58.918Z,37.60
2019-03-31T09:03:29.518Z,37.50
2019-03-31T09:06:02.065Z,38.40
2019-03-31T09:08:32.710Z,42.00
2019-03-31T09:11:03.850Z,43.90
2019-03-31T09:13:35.455Z,44.40
2019-03-31T09:16:06.309Z,44.40
2019-03-31T09:18:36.881Z,45.30
2019-03-31T09:21:07.438Z,45.40
2019-03-31T09:23:37.953Z,43.80
2019-03-31T09:26:08.542Z,44.60
2019-03-31T09:28:39.488Z,46.70
2019-03-31T09:31:10.067Z,46.10
2019-03-31T09:33:41.573Z,46.70
2019-03-31T09:36:16.569Z,46.50
2019-03-31T09:38:44.948Z,49.30
2019-03-31T09:41:16.947Z,48.60
2019-03-31T09:43:47.412Z,48.60
2019-03-31T09:46:18.258Z,48.50
2019-03-31T09:48:48.765Z,47.60
2019-03-31T09:51:19.718Z,48.20
2019-03-31T09:53:50.512Z,47.10
2019-03-31T09:56:21.049Z,47.50
2019-03-31T09:58:52.571Z,48.90
2019-03-31T10:01:23.166Z,51.30
2019-03-31T10:03:53.718Z,52.40
2019-03-31T10:06:30.404Z,53.20
2019-03-31T10:08:56.962Z,54.70
2019-03-31T10:11:27.916Z,55.40
2019-03-31T10:13:58.340Z,54.80
2019-03-31T10:16:28.894Z,52.00
2019-03-31T10:18:59.414Z,48.90
2019-03-31T10:21:30.352Z,49.40
2019-03-31T10:24:01.479Z,51.10
2019-03-31T10:26:32.576Z,51.20
2019-03-31T10:29:05.050Z,49.60
2019-03-31T10:31:35.879Z,48.10
2019-03-31T10:34:06.345Z,46.70
2019-03-31T10:36:44.532Z,46.90
2019-03-31T10:39:10.087Z,48.10
2019-03-31T10:41:41.083Z,48.80
2019-03-31T10:44:11.899Z,49.70
2019-03-31T10:46:42.339Z,50.20
2019-03-31T10:49:12.780Z,52.00
2019-03-31T10:51:43.298Z,53.50
2019-03-31T10:54:14.385Z,54.50
2019-03-31T10:56:44.838Z,55.90
2019-03-31T10:59:15.907Z,57.90
2019-03-31T11:01:46.508Z,58.00
2019-03-31T11:04:17.041Z,55.00
2019-03-31T11:06:58.833Z,55.60
2019-03-31T11:09:20.404Z,54.90
2019-03-31T11:11:50.876Z,54.30
2019-03-31T11:14:21.273Z,57.30
2019-03-31T11:16:52.119Z,57.70
2019-03-31T11:19:22.963Z,55.70
2019-03-31T11:21:58.881Z,56.70
2019-03-31T11:24:29.322Z,57.20
2019-03-31T11:26:59.916Z,57.00
2019-03-31T11:29:30.912Z,55.00
2019-03-31T11:32:01.383Z,55.50
2019-03-31T11:34:31.827Z,57.90
2019-03-31T11:37:12.844Z,60.80
2019-03-31T11:39:34.337Z,59.10
2019-03-31T11:42:04.874Z,55.40
2019-03-31T11:44:35.453Z,53.90
2019-03-31T11:47:06.625Z,56.20
2019-03-31T11:49:37.436Z,56.10
2019-03-31T11:52:07.966Z,57.00
2019-03-31T11:54:38.934Z,57.90
2019-03-31T11:57:10.029Z,58.50
2019-03-31T11:59:40.542Z,59.00
2019-03-31T12:02:11.165Z,58.70
2019-03-31T12:04:41.658Z,57.60
2019-03-31T12:07:27.367Z,56.00
2019-03-31T12:09:46.257Z,54.50
2019-03-31T12:12:16.676Z,56.10
2019-03-31T12:14:59.853Z,56.30
2019-03-31T12:17:19.906Z,55.10
2019-03-31T12:19:50.728Z,56.20
2019-03-31T12:22:21.348Z,55.80
2019-03-31T12:24:52.532Z,54.80
2019-03-31T12:27:23.220Z,52.90
2019-03-31T12:29:54.269Z,53.00
2019-03-31T12:32:24.690Z,53.20
2019-03-31T12:34:55.940Z,55.10
2019-03-31T12:37:26.825Z,56.80
2019-03-31T12:39:58.209Z,58.40
2019-03-31T12:42:28.644Z,60.70
2019-03-31T12:44:59.541Z,61.90
2019-03-31T12:47:30.110Z,60.90
2019-03-31T12:50:00.643Z,60.40
2019-03-31T12:52:31.220Z,60.40
2019-03-31T12:55:02.082Z,63.70
2019-03-31T12:57:32.481Z,66.10
2019-03-31T13:00:03.085Z,67.60
2019-03-31T13:02:33.919Z,69.20
2019-03-31T13:05:05.288Z,74.70
2019-03-31T13:07:37.394Z,76.90
2019-03-31T13:10:09.551Z,78.50
2019-03-31T13:12:40.182Z,82.00
2019-03-31T13:15:11.009Z,85.50
2019-03-31T13:17:41.609Z,90.80
2019-03-31T13:20:13.290Z,91.00
2019-03-31T13:22:45.818Z,91.80
2019-03-31T13:25:16.587Z,92.70
2019-03-31T13:27:47.072Z,94.50
2019-03-31T13:30:20.302Z,96.60
2019-03-31T13:32:50.454Z,97.10
2019-03-31T13:35:21.069Z,97.70
2019-03-31T13:37:51.568Z,99.50
2019-03-31T13:40:25.708Z,99.10
2019-03-31T13:42:56.644Z,99.90
2019-03-31T13:45:27.453Z,99.90
2019-03-31T13:47:58.825Z,99.90
2019-03-31T13:50:29.779Z,99.90
2019-03-31T13:53:00.458Z,99.90
2019-03-31T13:55:30.985Z,99.90
2019-03-31T13:58:02.786Z,99.20
2019-03-31T14:00:41.019Z,99.50
2019-03-31T14:03:11.928Z,99.90
2019-03-31T14:05:43.611Z,99.90
2019-03-31T14:08:24.931Z,99.90
2019-03-31T14:10:46.437Z,99.30
2019-03-31T14:13:17.109Z,99.90
2019-03-31T14:15:48.081Z,99.00
2019-03-31T14:18:18.550Z,98.30
2019-03-31T14:20:49.000Z,99.90
2019-03-31T14:23:19.530Z,98.10
2019-03-31T14:25:50.103Z,98.60
2019-03-31T14:28:21.037Z,98.50
2019-03-31T14:30:53.156Z,98.60
2019-03-31T14:33:23.684Z,97.00
2019-03-31T14:35:54.228Z,96.80
2019-03-31T14:38:39.163Z,98.10
2019-03-31T14:40:57.707Z,98.20
2019-03-31T14:43:28.264Z,98.20
2019-03-31T14:45:58.851Z,99.30
2019-03-31T14:48:29.347Z,99.90
2019-03-31T14:51:00.230Z,99.90
2019-03-31T14:53:31.000Z,99.90
2019-03-31T14:56:02.150Z,99.90
2019-03-31T14:58:32.976Z,99.90
2019-03-31T15:01:03.492Z,99.90
2019-03-31T15:03:34.419Z,99.90
2019-03-31T15:06:05.213Z,99.90
2019-03-31T15:08:35.993Z,99.90
2019-03-31T15:11:06.553Z,99.90
2019-03-31T15:13:37.293Z,99.90
2019-03-31T15:16:09.533Z,99.90
2019-03-31T15:18:40.458Z,99.90
2019-03-31T15:21:11.005Z,99.90
2019-03-31T15:23:41.444Z,99.90
2019-03-31T15:26:12.662Z,99.90
2019-03-31T15:28:45.426Z,99.90
2019-03-31T15:31:15.702Z,99.90
2019-03-31T15:33:46.574Z,99.90
2019-03-31T15:36:16.996Z,99.90
2019-03-31T15:38:47.746Z,99.90
2019-03-31T15:41:21.418Z,99.90
2019-03-31T15:43:52.493Z,99.90
2019-03-31T15:46:24.567Z,99.90
2019-03-31T15:48:55.284Z,99.90
2019-03-31T15:51:25.953Z,99.90
2019-03-31T15:53:56.428Z,99.90
2019-03-31T15:56:26.854Z,99.90
2019-03-31T15:58:57.301Z,99.90
2019-03-31T16:01:27.930Z,99.90
2019-03-31T16:03:58.491Z,99.90
2019-03-31T16:06:29.140Z,99.90
2019-03-31T16:08:59.644Z,99.90
2019-03-31T16:11:29.624Z,99.90
2019-03-31T16:13:59.990Z,99.90
2019-03-31T16:16:30.737Z,99.90
2019-03-31T16:19:01.960Z,99.90
2019-03-31T16:21:33.045Z,99.90
2019-03-31T16:24:03.141Z,99.90
2019-03-31T16:26:33.304Z,99.90
2019-03-31T16:29:03.276Z,99.90
2019-03-31T16:31:33.192Z,99.90
2019-03-31T16:34:03.204Z,99.90
2019-03-31T16:36:33.333Z,99.90
2019-03-31T16:39:05.440Z,99.90
2019-03-31T16:41:36.232Z,99.90
2019-03-31T16:44:06.668Z,99.90
2019-03-31T16:46:39.759Z,99.90
2019-03-31T16:49:08.645Z,99.90
2019-03-31T16:51:38.816Z,99.90
2019-03-31T16:54:08.813Z,99.90
2019-03-31T16:56:51.908Z,99.90
2019-03-31T16:59:22.195Z,99.90
2019-03-31T17:01:55.163Z,99.90
2019-03-31T17:04:25.754Z,99.90
2019-03-31T17:06:56.196Z,99.90
2019-03-31T17:09:26.443Z,99.90
2019-03-31T17:11:56.919Z,99.90
2019-03-31T17:14:27.227Z,99.90
2019-03-31T17:16:57.338Z,99.90
2019-03-31T17:19:27.701Z,99.90
2019-03-31T17:21:59.819Z,99.90
2019-03-31T17:24:29.588Z,99.90
2019-03-31T17:26:59.761Z,99.90
2019-03-31T17:29:29.816Z,99.90
2019-03-31T17:31:59.937Z,99.90
2019-03-31T17:34:29.978Z,99.90
2019-03-31T17:37:00.415Z,99.90
2019-03-31T17:39:30.479Z,99.90
2019-03-31T17:42:00.478Z,99.90
2019-03-31T17:44:33.490Z,99.90
2019-03-31T17:47:05.176Z,99.90
2019-03-31T17:49:35.893Z,99.90
2019-03-31T17:52:06.074Z,99.90
2019-03-31T17:54:36.371Z,99.90
2019-03-31T17:57:06.400Z,99.90
2019-03-31T17:59:36.560Z,99.90
2019-03-31T18:02:07.047Z,99.90
2019-03-31T18:04:38.472Z,99.90
2019-03-31T18:07:08.557Z,99.90
2019-03-31T18:09:38.697Z,99.90
2019-03-31T18:12:09.161Z,99.90
2019-03-31T18:14:39.180Z,99.90
2019-03-31T18:17:09.363Z,99.90
2019-03-31T18:19:39.824Z,99.90
2019-03-31T18:22:16.639Z,99.90
2019-03-31T18:24:43.062Z,99.90
2019-03-31T18:27:13.229Z,99.90
2019-03-31T18:29:43.492Z,99.90
2019-03-31T18:32:14.067Z,99.90
2019-03-31T18:34:44.024Z,99.90
2019-03-31T18:37:13.948Z,99.90
2019-03-31T18:39:44.443Z,99.90
2019-03-31T18:42:14.470Z,99.90
2019-03-31T18:44:44.500Z,99.90
2019-03-31T18:47:14.574Z,99.90
2019-03-31T18:49:45.117Z,99.90
2019-03-31T18:52:15.222Z,99.90
2019-03-31T18:55:07.075Z,99.90
2019-03-31T18:57:42.243Z,99.90
2019-03-31T19:00:21.563Z,99.90
2019-03-31T19:03:07.553Z,99.90
2019-03-31T19:06:03.235Z,99.90
2019-03-31T19:08:47.897Z,99.90
2019-03-31T19:11:35.686Z,99.90
2019-03-31T19:14:22.386Z,99.90
2019-03-31T19:17:17.444Z,99.90
2019-03-31T19:19:52.702Z,99.90
2019-03-31T19:22:41.196Z,99.90
2019-03-31T19:25:33.193Z,99.90
2019-03-31T19:28:33.480Z,99.90
2019-03-31T19:31:28.462Z,99.90
2019-03-31T19:34:20.566Z,99.90
2019-03-31T19:36:58.360Z,99.90
2019-03-31T19:39:46.555Z,99.90
2019-03-31T19:42:25.197Z,99.90
2019-03-31T19:45:04.466Z,99.90
2019-03-31T19:47:56.526Z,99.90
2019-03-31T19:50:38.060Z,99.90
2019-03-31T19:53:41.226Z,99.90
2019-03-31T19:56:20.673Z,99.90
2019-03-31T19:59:08.316Z,99.90
2019-03-31T20:02:09.383Z,99.90
2019-03-31T20:05:04.345Z,99.90
2019-03-31T20:07:56.726Z,99.90
2019-03-31T20:10:50.951Z,99.90
2019-03-31T20:13:46.380Z,99.90
2019-03-31T20:16:22.070Z,99.90
2019-03-31T20:19:01.060Z,99.90
2019-03-31T20:21:35.550Z,99.90
2019-03-31T20:24:33.968Z,99.90
2019-03-31T20:27:15.886Z,99.90
2019-03-31T20:30:08.198Z,99.90
2019-03-31T20:32:46.754Z,99.90
2019-03-31T20:35:41.648Z,99.90
2019-03-31T20:38:27.820Z,99.90
2019-03-31T20:41:17.117Z,99.90
2019-03-31T20:44:04.434Z,99.90
2019-03-31T20:46:34.776Z,99.90
2019-03-31T20:49:04.726Z,99.90
2019-03-31T20:51:34.867Z,99.90
2019-03-31T20:54:04.883Z,99.90
2019-03-31T20:56:35.270Z,99.90
2019-03-31T20:59:05.815Z,99.90
2019-03-31T21:01:35.803Z,99.90
2019-03-31T21:04:06.173Z,99.90
2019-03-31T21:06:36.376Z,99.90
2019-03-31T21:09:08.492Z,99.90
2019-03-31T21:11:38.622Z,99.90
2019-03-31T21:14:10.080Z,99.90
2019-03-31T21:16:40.357Z,99.90
2019-03-31T21:19:10.782Z,99.90
2019-03-31T21:21:40.701Z,99.90
2019-03-31T21:24:10.718Z,99.90
2019-03-31T21:26:40.660Z,99.90
2019-03-31T21:29:10.481Z,99.90
2019-03-31T21:31:40.444Z,99.90
2019-03-31T21:34:10.482Z,99.90
2019-03-31T21:36:40.429Z,99.90
2019-03-31T21:39:10.271Z,99.90
2019-03-31T21:41:40.219Z,99.90
2019-03-31T21:44:10.540Z,99.90
2019-03-31T21:46:40.490Z,99.90
2019-03-31T21:49:10.477Z,99.90
2019-03-31T21:51:40.676Z,99.90
2019-03-31T21:54:10.922Z,99.90
2019-03-31T21:56:40.898Z,99.90
2019-03-31T21:59:10.776Z,99.90
2019-03-31T22:01:41.631Z,99.90
2019-03-31T22:04:11.809Z,99.90
2019-03-31T22:06:42.098Z,99.90
2019-03-31T22:09:12.201Z,99.90
2019-03-31T22:11:42.190Z,99.90
2019-03-31T22:14:12.624Z,99.90
2019-03-31T22:16:42.710Z,99.90
2019-03-31T22:19:13.099Z,99.90
2019-03-31T22:21:43.100Z,99.90
2019-03-31T22:24:12.924Z,99.90
2019-03-31T22:26:42.893Z,99.90
2019-03-31T22:29:12.844Z,99.90
2019-03-31T22:31:42.940Z,99.90
2019-03-31T22:34:13.123Z,99.90
2019-03-31T22:36:43.068Z,99.90
2019-03-31T22:39:13.149Z,99.90
2019-03-31T22:41:43.674Z,99.90
2019-03-31T22:44:13.543Z,99.90
2019-03-31T22:46:54.051Z,99.90
2019-03-31T22:49:15.624Z,99.90
2019-03-31T22:51:45.457Z,99.90
2019-03-31T22:54:15.435Z,99.90
2019-03-31T22:56:45.713Z,99.90
2019-03-31T22:59:16.093Z,99.90
2019-03-31T23:01:46.063Z,99.90
2019-03-31T23:04:15.981Z,99.90
2019-03-31T23:06:45.972Z,99.90
2019-03-31T23:09:16.052Z,99.90
2019-03-31T23:11:46.296Z,99.90
2019-03-31T23:14:16.264Z,99.90
2019-03-31T23:16:46.302Z,99.90
2019-03-31T23:19:16.607Z,99.90
2019-03-31T23:21:46.486Z,99.90
2019-03-31T23:24:16.369Z,99.90
2019-03-31T23:26:46.263Z,99.90
2019-03-31T23:29:16.150Z,99.90
2019-03-31T23:31:46.350Z,99.90
2019-03-31T23:34:16.372Z,99.90
2019-03-31T23:36:46.206Z,99.90
2019-03-31T23:39:16.300Z,99.90
2019-03-31T23:41:46.231Z,99.90
2019-03-31T23:44:16.339Z,99.90
2019-03-31T23:46:46.410Z,99.90
2019-03-31T23:49:16.269Z,99.90
2019-03-31T23:51:46.082Z,99.90
2019-03-31T23:54:16.257Z,99.90
2019-03-31T23:56:46.401Z,99.90
2019-03-31T23:59:16.412Z,99.90
